Aeroporto :
LOGIN :

Iscrizione | Disclaimer

   EN    FR    IT 

 










Sommario :    VFR   VFR Marginale   IFR   IFR Intensivo   IFR Molto Intensivo
Visibilità : 
Base nubi : 
>= 8 km
>= 3000ft
5 / 8 km
1000 / 3000 ft
1500m / 5 km
500 / 1000 ft
800 / 1500m
200 / 500 ft
< 800m
< 200 ft
Simboli :   Temporali  Nebbia  Neve Forte  Precipitazioni Forti  Vento > 20 kt
SIGMETs :   Varie  Temporali  Ghiacco  Turbolenza  Onda orograficha  Ceneri Vulcaniche






- Altitudine del aeroporto : 1487 ft
- Codice IATA : MUC


EDDM - München Franz Josef Strauss

ULTIMO METAR :
  • 270750Z 21005KT 9999 -SNRA FEW031 BKN050 02/M01 Q0992 NOSIG

METARs OBSOLETI :
  • 270720Z 17003KT 130V230 9999 FEW035 BKN050 02/M01 Q0991 NOSIG
  • 270650Z 12006KT 090V160 9999 FEW036 BKN050 02/M01 Q0991 NOSIG
  • 270620Z 08003KT 010V140 9999 FEW040 02/M01 Q0990 NOSIG
  • 270550Z 13007KT 9999 SCT045 02/M01 Q0991 NOSIG
  • 270520Z 14007KT 9999 FEW045 02/M02 Q0991 NOSIG

TAF TAF EDDM
Valido dal 27 a 06 ore il 28 a 12 ore UTC


270500Z 2706/2812 13005KT 9999 BKN030
PROB30
TEMPO 2708/2718 4500 -RASN BKN013
BECMG 2714/2717 22005KT
PROB40
TEMPO 2803/2812 2000 -SN OVC005



MetMap, La meteo Aeronautica in un colpo d'occhio ! - Copyright ORBIFLY Dicembre 2007 - Disclaimer

ORBIFLY MET'MAP TEAM :

Programmazione e sviluppo : Alexandra Zaïnal
Concezione : Baudouin d'Aumeries
Aiuto per la programmazione : Marc-Olivier Méhu
Supporto tecnico e logistico : Manuel Goepfert
Aiuto per la traduzione : Arnaldo La Scala

Contatto : metmap@orbifly.com




FONTI E CREDITI :

   NOAA